sensor_id;sensor_type;location;lat;lon;timestamp;P1;P4;P2;P0;N10;N4;N25;N1;N05;TS
59652;SPS30;45954;49.768;8.636;2023-05-21T00:02:26;15.63;14.69;12.80;9.91;79.51;79.41;78.95;76.27;61.87;0.66
59652;SPS30;45954;49.768;8.636;2023-05-21T00:04:54;13.78;13.00;11.44;9.00;72.13;72.04;71.67;69.42;56.57;0.60
59652;SPS30;45954;49.768;8.636;2023-05-21T00:07:20;11.06;10.46;9.27;7.39;59.23;59.17;58.88;57.16;46.75;0.61
59652;SPS30;45954;49.768;8.636;2023-05-21T00:09:47;13.19;12.46;10.98;8.67;69.50;69.42;69.06;66.94;54.61;0.62
59652;SPS30;45954;49.768;8.636;2023-05-21T00:12:13;13.23;12.48;10.99;8.66;69.43;69.35;69.00;66.85;54.50;0.60
59652;SPS30;45954;49.768;8.636;2023-05-21T00:14:38;11.39;10.69;9.28;7.14;57.24;57.16;56.83;54.83;44.38;0.62
59652;SPS30;45954;49.768;8.636;2023-05-21T00:17:04;11.05;10.46;9.29;7.43;59.57;59.51;59.22;57.53;47.10;0.60
59652;SPS30;45954;49.768;8.636;2023-05-21T00:19:30;11.95;11.36;10.20;8.29;66.39;66.33;66.05;64.33;52.91;0.59
59652;SPS30;45954;49.768;8.636;2023-05-21T00:21:57;13.88;13.11;11.56;9.13;73.22;73.14;72.77;70.54;57.55;0.60
59652;SPS30;45954;49.768;8.636;2023-05-21T00:24:27;14.08;13.15;11.29;8.52;68.36;68.26;67.82;65.21;52.47;0.61
59652;SPS30;45954;49.768;8.636;2023-05-21T00:26:53;12.91;12.16;10.66;8.35;66.92;66.84;66.48;64.35;52.36;0.63
59652;SPS30;45954;49.768;8.636;2023-05-21T00:29:20;13.61;12.84;11.30;8.90;71.35;71.26;70.89;68.69;55.99;0.61
59652;SPS30;45954;49.768;8.636;2023-05-21T00:31:46;12.67;11.90;10.38;8.04;64.48;64.40;64.04;61.87;50.19;0.62
59652;SPS30;45954;49.768;8.636;2023-05-21T00:34:14;14.67;13.74;11.88;9.07;72.75;72.66;72.21;69.59;56.21;0.62
59652;SPS30;45954;49.768;8.636;2023-05-21T00:36:40;10.97;10.39;9.24;7.40;59.33;59.27;58.99;57.32;46.95;0.58
59652;SPS30;45954;49.768;8.636;2023-05-21T00:39:09;13.51;12.79;11.34;9.04;72.46;72.38;72.03;69.94;57.21;0.61
59652;SPS30;45954;49.768;8.636;2023-05-21T00:41:38;11.50;10.85;9.57;7.55;60.54;60.47;60.16;58.31;47.56;0.62
59652;SPS30;45954;49.768;8.636;2023-05-21T00:44:05;12.59;11.73;10.02;7.49;60.10;60.01;59.61;57.21;45.90;0.66
59652;SPS30;45954;49.768;8.636;2023-05-21T00:46:31;13.17;12.40;10.85;8.45;67.79;67.71;67.34;65.12;52.93;0.63
59652;SPS30;45954;49.768;8.636;2023-05-21T00:48:57;10.38;9.86;8.82;7.13;57.14;57.08;56.83;55.31;45.43;0.60
59652;SPS30;45954;49.768;8.636;2023-05-21T00:51:24;11.07;10.46;9.25;7.33;58.75;58.68;58.39;56.63;46.25;0.64
59652;SPS30;45954;49.768;8.636;2023-05-21T00:53:54;14.82;13.91;12.08;9.30;74.56;74.47;74.03;71.44;57.84;0.65
59652;SPS30;45954;49.768;8.636;2023-05-21T00:56:21;13.83;13.03;11.42;8.94;71.64;71.56;71.17;68.88;56.03;0.63
59652;SPS30;45954;49.768;8.636;2023-05-21T00:58:49;11.25;10.70;9.60;7.81;62.54;62.48;62.21;60.59;49.83;0.60
59652;SPS30;45954;49.768;8.636;2023-05-21T01:01:16;11.92;11.23;9.85;7.71;61.86;61.78;61.45;59.48;48.41;0.62
59652;SPS30;45954;49.768;8.636;2023-05-21T01:03:43;15.31;14.34;12.41;9.49;76.12;76.02;75.56;72.83;58.85;0.62
59652;SPS30;45954;49.768;8.636;2023-05-21T01:06:09;12.85;12.18;10.85;8.71;69.82;69.75;69.42;67.48;55.31;0.62
59652;SPS30;45954;49.768;8.636;2023-05-21T01:08:38;12.21;11.59;10.37;8.38;67.12;67.05;66.75;64.95;53.33;0.60
59652;SPS30;45954;49.768;8.636;2023-05-21T01:11:06;12.30;11.50;9.91;7.51;60.27;60.18;59.80;57.56;46.39;0.63
59652;SPS30;45954;49.768;8.636;2023-05-21T01:13:35;13.68;12.88;11.28;8.81;70.68;70.59;70.21;67.93;55.24;0.60
59652;SPS30;45954;49.768;8.636;2023-05-21T01:16:05;12.97;12.23;10.75;8.45;67.76;67.69;67.33;65.21;53.13;0.61
59652;SPS30;45954;49.768;8.636;2023-05-21T01:18:36;13.13;12.39;10.92;8.62;69.09;69.01;68.66;66.54;54.28;0.61
59652;SPS30;45954;49.768;8.636;2023-05-21T01:21:02;13.64;12.88;11.37;9.00;72.12;72.04;71.67;69.50;56.73;0.60
59652;SPS30;45954;49.768;8.636;2023-05-21T01:23:29;12.83;11.92;10.12;7.47;59.97;59.88;59.45;56.94;45.51;0.64
59652;SPS30;45954;49.768;8.636;2023-05-21T01:25:55;13.73;12.78;10.89;8.10;65.05;64.96;64.51;61.87;49.57;0.64
59652;SPS30;45954;49.768;8.636;2023-05-21T01:28:21;11.11;10.43;9.08;7.01;56.25;56.18;55.85;53.93;43.72;0.62
59652;SPS30;45954;49.768;8.636;2023-05-21T01:30:47;12.06;11.34;9.92;7.73;62.02;61.94;61.60;59.57;48.41;0.62
59652;SPS30;45954;49.768;8.636;2023-05-21T01:33:48;14.18;13.18;11.19;8.27;66.39;66.29;65.81;63.04;50.40;0.63
59652;SPS30;45954;49.768;8.636;2023-05-21T01:36:12;11.70;11.00;9.61;7.47;59.89;59.82;59.48;57.50;46.69;0.61
59652;SPS30;45954;49.768;8.636;2023-05-21T01:38:54;11.62;10.94;9.58;7.47;59.92;59.85;59.53;57.58;46.82;0.62
59652;SPS30;45954;49.768;8.636;2023-05-21T01:42:03;12.64;11.91;10.45;8.19;65.64;65.56;65.21;63.12;51.38;0.61
59652;SPS30;45954;49.768;8.636;2023-05-21T01:44:33;13.79;12.82;10.89;8.06;64.74;64.64;64.18;61.50;49.19;0.66
59652;SPS30;45954;49.768;8.636;2023-05-21T01:47:01;12.15;11.42;9.96;7.72;61.93;61.85;61.50;59.42;48.21;0.62
59652;SPS30;45954;49.768;8.636;2023-05-21T01:49:29;10.92;10.34;9.17;7.32;58.63;58.57;58.29;56.60;46.31;0.61
59652;SPS30;45954;49.768;8.636;2023-05-21T01:51:56;13.45;12.60;10.91;8.35;66.97;66.88;66.48;64.08;51.80;0.64
59652;SPS30;45954;49.768;8.636;2023-05-21T01:54:21;13.03;12.08;10.20;7.46;59.88;59.78;59.33;56.72;45.19;0.64
59652;SPS30;45954;49.768;8.636;2023-05-21T01:56:48;11.71;11.00;9.57;7.39;59.30;59.22;58.88;56.86;46.08;0.63
59652;SPS30;45954;49.768;8.636;2023-05-21T01:59:15;12.81;12.12;10.74;8.56;68.57;68.49;68.16;66.17;54.12;0.62
59652;SPS30;45954;49.768;8.636;2023-05-21T02:01:41;11.89;11.21;9.86;7.76;62.20;62.13;61.80;59.87;48.79;0.64
59652;SPS30;45954;49.768;8.636;2023-05-21T02:04:07;14.59;13.60;11.62;8.69;69.77;69.67;69.20;66.43;53.31;0.63
59652;SPS30;45954;49.768;8.636;2023-05-21T02:06:33;11.99;11.23;9.73;7.46;59.82;59.74;59.38;57.26;46.30;0.62
59652;SPS30;45954;49.768;8.636;2023-05-21T02:09:01;12.18;11.49;10.12;7.97;63.91;63.84;63.51;61.54;50.17;0.60
59652;SPS30;45954;49.768;8.636;2023-05-21T02:11:27;14.27;13.45;11.80;9.25;74.16;74.07;73.67;71.32;58.05;0.63
59652;SPS30;45954;49.768;8.636;2023-05-21T02:13:53;12.36;11.55;9.92;7.48;60.04;59.95;59.56;57.28;46.09;0.62
59652;SPS30;45954;49.768;8.636;2023-05-21T02:16:21;13.12;12.34;10.78;8.39;67.28;67.19;66.82;64.60;52.48;0.62
59652;SPS30;45954;49.768;8.636;2023-05-21T02:18:47;11.93;11.23;9.83;7.67;61.47;61.40;61.06;59.06;48.01;0.63
59652;SPS30;45954;49.768;8.636;2023-05-21T02:21:17;12.16;11.42;9.95;7.70;61.73;61.65;61.30;59.21;48.01;0.64
59652;SPS30;45954;49.768;8.636;2023-05-21T02:23:44;15.62;14.55;12.41;9.25;74.24;74.13;73.62;70.64;56.63;0.65
59652;SPS30;45954;49.768;8.636;2023-05-21T02:26:10;11.33;10.66;9.31;7.24;58.09;58.02;57.70;55.78;45.30;0.63
59652;SPS30;45954;49.768;8.636;2023-05-21T02:28:36;10.41;9.89;8.84;7.15;57.25;57.19;56.93;55.40;45.49;0.62
59652;SPS30;45954;49.768;8.636;2023-05-21T02:31:02;11.84;11.18;9.86;7.79;62.42;62.35;62.03;60.13;49.06;0.62
59652;SPS30;45954;49.768;8.636;2023-05-21T02:33:28;12.19;11.39;9.78;7.39;59.27;59.19;58.80;56.55;45.52;0.63
59652;SPS30;45954;49.768;8.636;2023-05-21T02:35:54;11.34;10.65;9.28;7.19;57.64;57.57;57.24;55.29;44.84;0.63
59652;SPS30;45954;49.768;8.636;2023-05-21T02:38:20;11.70;10.98;9.56;7.39;59.30;59.23;58.89;56.87;46.11;0.63
59652;SPS30;45954;49.768;8.636;2023-05-21T02:40:47;13.85;12.98;11.25;8.62;69.12;69.03;68.62;66.16;53.49;0.66
59652;SPS30;45954;49.768;8.636;2023-05-21T02:43:15;14.19;13.21;11.25;8.35;67.04;66.94;66.47;63.74;51.04;0.66
59652;SPS30;45954;49.768;8.636;2023-05-21T02:45:41;11.59;10.88;9.46;7.30;58.55;58.47;58.13;56.12;45.47;0.63
59652;SPS30;45954;49.768;8.636;2023-05-21T02:48:07;13.25;12.49;10.99;8.65;69.33;69.25;68.89;66.73;54.38;0.62
59652;SPS30;45954;49.768;8.636;2023-05-21T02:50:33;11.23;10.60;9.33;7.34;58.85;58.79;58.48;56.66;46.18;0.63
59652;SPS30;45954;49.768;8.636;2023-05-21T02:52:59;13.12;12.31;10.69;8.22;65.94;65.86;65.47;63.17;51.14;0.63
59652;SPS30;45954;49.768;8.636;2023-05-21T02:55:25;12.41;11.68;10.22;7.96;63.86;63.78;63.43;61.35;49.86;0.62
59652;SPS30;45954;49.768;8.636;2023-05-21T02:57:50;10.48;9.90;8.76;6.95;55.67;55.61;55.33;53.68;43.85;0.63
59652;SPS30;45954;49.768;8.636;2023-05-21T03:00:16;10.21;9.66;8.57;6.84;54.79;54.73;54.47;52.88;43.27;0.62
59652;SPS30;45954;49.768;8.636;2023-05-21T03:02:42;12.56;11.78;10.25;7.90;63.36;63.28;62.91;60.72;49.19;0.61
59652;SPS30;45954;49.768;8.636;2023-05-21T03:05:08;11.13;10.42;9.00;6.87;55.09;55.01;54.67;52.67;42.53;0.64
59652;SPS30;45954;49.768;8.636;2023-05-21T03:07:34;11.59;10.92;9.57;7.48;59.95;59.88;59.55;57.62;46.87;0.62
59652;SPS30;45954;49.768;8.636;2023-05-21T03:10:00;11.04;10.49;9.41;7.64;61.19;61.13;60.86;59.27;48.73;0.60
59652;SPS30;45954;49.768;8.636;2023-05-21T03:12:26;11.63;11.00;9.72;7.71;61.83;61.76;61.45;59.61;48.70;0.61
59652;SPS30;45954;49.768;8.636;2023-05-21T03:14:52;11.57;10.86;9.44;7.28;58.43;58.35;58.01;56.01;45.38;0.60
59652;SPS30;45954;49.768;8.636;2023-05-21T03:17:18;10.16;9.60;8.49;6.73;53.93;53.87;53.60;51.99;42.46;0.60
59652;SPS30;45954;49.768;8.636;2023-05-21T03:19:44;13.00;12.26;10.80;8.51;68.22;68.14;67.79;65.69;53.55;0.63
59652;SPS30;45954;49.768;8.636;2023-05-21T03:22:10;12.40;11.63;10.11;7.78;62.44;62.36;61.99;59.83;48.45;0.63
59652;SPS30;45954;49.768;8.636;2023-05-21T03:24:36;13.07;12.23;10.55;8.03;64.41;64.32;63.92;61.56;49.66;0.64
59652;SPS30;45954;49.768;8.636;2023-05-21T03:27:03;10.49;9.93;8.82;7.05;56.50;56.44;56.17;54.55;44.66;0.60
59652;SPS30;45954;49.768;8.636;2023-05-21T03:29:31;12.13;11.54;10.35;8.41;67.36;67.29;67.01;65.26;53.66;0.60
59652;SPS30;45954;49.768;8.636;2023-05-21T03:31:57;11.74;11.07;9.73;7.64;61.27;61.19;60.87;58.95;48.02;0.62
59652;SPS30;45954;49.768;8.636;2023-05-21T03:34:24;12.27;11.51;10.00;7.70;61.80;61.72;61.36;59.22;47.96;0.64
59652;SPS30;45954;49.768;8.636;2023-05-21T03:36:50;10.61;10.00;8.79;6.91;55.37;55.30;55.01;53.27;43.39;0.63
59652;SPS30;45954;49.768;8.636;2023-05-21T03:39:16;11.95;11.31;10.03;8.00;64.14;64.07;63.76;61.91;50.65;0.61
59652;SPS30;45954;49.768;8.636;2023-05-21T03:41:42;11.29;10.68;9.46;7.53;60.34;60.27;59.98;58.21;47.59;0.62
59652;SPS30;45954;49.768;8.636;2023-05-21T03:44:08;12.71;11.89;10.25;7.78;62.43;62.34;61.95;59.64;48.09;0.65
59652;SPS30;45954;49.768;8.636;2023-05-21T03:46:34;11.32;10.67;9.37;7.35;58.96;58.89;58.58;56.72;46.19;0.62
59652;SPS30;45954;49.768;8.636;2023-05-21T03:49:00;11.46;10.84;9.60;7.63;61.17;61.10;60.80;59.00;48.23;0.59
59652;SPS30;45954;49.768;8.636;2023-05-21T03:51:26;13.20;12.49;11.08;8.83;70.79;70.71;70.37;68.32;55.89;0.58
59652;SPS30;45954;49.768;8.636;2023-05-21T03:53:54;13.41;12.67;11.19;8.86;71.05;70.97;70.62;68.49;55.92;0.60
59652;SPS30;45954;49.768;8.636;2023-05-21T03:56:22;13.37;12.65;11.19;8.90;71.32;71.25;70.90;68.80;56.23;0.59
59652;SPS30;45954;49.768;8.636;2023-05-21T03:58:48;12.76;12.11;10.81;8.72;69.85;69.78;69.46;67.57;55.44;0.60
59652;SPS30;45954;49.768;8.636;2023-05-21T04:01:13;11.22;10.66;9.54;7.72;61.83;61.76;61.49;59.85;49.16;0.60
59652;SPS30;45954;49.768;8.636;2023-05-21T04:03:39;12.62;11.85;10.32;7.98;64.00;63.92;63.55;61.38;49.76;0.62
59652;SPS30;45954;49.768;8.636;2023-05-21T04:06:05;10.73;10.18;9.09;7.33;58.71;58.65;58.39;56.80;46.61;0.61
59652;SPS30;45954;49.768;8.636;2023-05-21T04:08:31;11.31;10.80;9.77;8.05;64.49;64.44;64.19;62.66;51.72;0.61
59652;SPS30;45954;49.768;8.636;2023-05-21T04:10:57;11.29;10.67;9.44;7.50;60.09;60.02;59.72;57.94;47.34;0.64
59652;SPS30;45954;49.768;8.636;2023-05-21T04:13:22;13.44;12.53;10.72;8.04;64.55;64.46;64.03;61.50;49.40;0.64
59652;SPS30;45954;49.768;8.636;2023-05-21T04:15:48;12.05;11.29;9.76;7.46;59.85;59.77;59.41;57.25;46.26;0.63
59652;SPS30;45954;49.768;8.636;2023-05-21T04:18:14;11.70;11.02;9.65;7.53;60.39;60.32;59.99;58.03;47.19;0.63
59652;SPS30;45954;49.768;8.636;2023-05-21T04:20:41;13.23;12.46;10.93;8.56;68.62;68.54;68.17;65.98;53.69;0.63
59652;SPS30;45954;49.768;8.636;2023-05-21T04:23:07;13.81;12.88;11.03;8.28;66.43;66.34;65.90;63.30;50.86;0.63
59652;SPS30;45954;49.768;8.636;2023-05-21T04:25:34;12.79;11.91;10.17;7.58;60.89;60.80;60.38;57.94;46.47;0.62
59652;SPS30;45954;49.768;8.636;2023-05-21T04:28:00;12.30;11.60;10.21;8.04;64.49;64.41;64.08;62.08;50.61;0.62
59652;SPS30;45954;49.768;8.636;2023-05-21T04:30:26;11.61;11.00;9.78;7.82;62.67;62.60;62.31;60.53;49.56;0.64
59652;SPS30;45954;49.768;8.636;2023-05-21T04:32:52;11.78;11.13;9.84;7.80;62.56;62.49;62.18;60.31;49.26;0.63
59652;SPS30;45954;49.768;8.636;2023-05-21T04:35:18;11.72;11.17;10.07;8.24;66.03;65.97;65.70;64.07;52.80;0.63
59652;SPS30;45954;49.768;8.636;2023-05-21T04:37:45;10.31;9.80;8.80;7.16;57.35;57.30;57.05;55.58;45.72;0.62
59652;SPS30;45954;49.768;8.636;2023-05-21T04:40:14;10.65;10.14;9.11;7.42;59.44;59.38;59.13;57.62;47.42;0.61
59652;SPS30;45954;49.768;8.636;2023-05-21T04:42:45;10.01;9.61;8.82;7.42;59.43;59.38;59.19;57.98;48.13;0.59
59652;SPS30;45954;49.768;8.636;2023-05-21T04:45:12;11.97;11.40;10.25;8.36;66.95;66.88;66.60;64.91;53.43;0.61
59652;SPS30;45954;49.768;8.636;2023-05-21T04:47:38;12.63;11.97;10.66;8.55;68.50;68.43;68.11;66.19;54.24;0.62
59652;SPS30;45954;49.768;8.636;2023-05-21T04:50:04;10.80;10.27;9.22;7.51;60.12;60.07;59.81;58.27;47.94;0.60
59652;SPS30;45954;49.768;8.636;2023-05-21T04:52:31;11.90;11.36;10.28;8.47;67.80;67.74;67.47;65.86;54.37;0.61
59652;SPS30;45954;49.768;8.636;2023-05-21T04:54:58;12.93;12.22;10.80;8.56;68.62;68.54;68.20;66.15;54.02;0.62
59652;SPS30;45954;49.768;8.636;2023-05-21T04:57:25;11.37;10.80;9.67;7.84;62.78;62.72;62.45;60.79;49.95;0.60
59652;SPS30;45954;49.768;8.636;2023-05-21T04:59:52;11.50;10.93;9.78;7.91;63.39;63.33;63.05;61.36;50.40;0.62
59652;SPS30;45954;49.768;8.636;2023-05-21T05:02:18;12.01;11.35;10.03;7.95;63.74;63.67;63.35;61.45;50.19;0.62
59652;SPS30;45954;49.768;8.636;2023-05-21T05:04:44;13.51;12.67;10.98;8.42;67.52;67.43;67.02;64.63;52.27;0.65
59652;SPS30;45954;49.768;8.636;2023-05-21T05:07:10;10.32;9.79;8.74;7.05;56.48;56.42;56.17;54.63;44.83;0.62
59652;SPS30;45954;49.768;8.636;2023-05-21T05:09:36;12.13;11.52;10.30;8.33;66.70;66.63;66.34;64.56;53.01;0.62
59652;SPS30;45954;49.768;8.636;2023-05-21T05:12:02;11.28;10.62;9.30;7.26;58.23;58.16;57.84;55.96;45.50;0.63
59652;SPS30;45954;49.768;8.636;2023-05-21T05:14:29;12.73;11.92;10.31;7.87;63.17;63.08;62.70;60.42;48.81;0.64
59652;SPS30;45954;49.768;8.636;2023-05-21T05:16:55;12.72;12.05;10.71;8.57;68.68;68.61;68.29;66.34;54.33;0.62
59652;SPS30;45954;49.768;8.636;2023-05-21T05:19:25;11.13;10.56;9.43;7.61;60.95;60.89;60.61;58.96;48.39;0.59
59652;SPS30;45954;49.768;8.636;2023-05-21T05:21:51;11.34;10.65;9.28;7.18;57.59;57.52;57.19;55.24;44.79;0.62
59652;SPS30;45954;49.768;8.636;2023-05-21T05:24:17;13.72;12.74;10.78;7.92;63.62;63.52;63.06;60.34;48.16;0.65
59652;SPS30;45954;49.768;8.636;2023-05-21T05:26:43;10.95;10.31;9.02;7.04;56.48;56.42;56.11;54.28;44.13;0.61
59652;SPS30;45954;49.768;8.636;2023-05-21T05:29:09;11.87;11.32;10.22;8.40;67.25;67.19;66.92;65.30;53.85;0.59
59652;SPS30;45954;49.768;8.636;2023-05-21T05:31:35;10.72;10.19;9.12;7.38;59.13;59.07;58.81;57.24;47.02;0.61
59652;SPS30;45954;49.768;8.636;2023-05-21T05:34:01;13.90;12.99;11.17;8.45;67.83;67.74;67.31;64.75;52.16;0.65
59652;SPS30;45954;49.768;8.636;2023-05-21T05:36:27;10.70;10.16;9.08;7.33;58.70;58.64;58.38;56.79;46.62;0.60
59652;SPS30;45954;49.768;8.636;2023-05-21T05:38:53;10.50;9.97;8.90;7.18;57.49;57.43;57.17;55.61;45.63;0.60
59652;SPS30;45954;49.768;8.636;2023-05-21T05:41:19;11.97;11.33;10.07;8.05;64.50;64.43;64.13;62.29;51.00;0.60
59652;SPS30;45954;49.768;8.636;2023-05-21T05:43:45;12.50;11.73;10.17;7.81;62.63;62.55;62.18;59.98;48.53;0.64
59652;SPS30;45954;49.768;8.636;2023-05-21T05:46:11;13.24;12.40;10.72;8.18;65.60;65.52;65.11;62.74;50.66;0.64
59652;SPS30;45954;49.768;8.636;2023-05-21T05:48:36;11.31;10.63;9.28;7.20;57.77;57.69;57.37;55.44;45.00;0.64
59652;SPS30;45954;49.768;8.636;2023-05-21T05:51:02;12.08;11.30;9.75;7.43;59.58;59.50;59.13;56.95;45.96;0.65
59652;SPS30;45954;49.768;8.636;2023-05-21T05:53:28;12.29;11.43;9.72;7.20;57.81;57.72;57.31;54.93;43.95;0.65
59652;SPS30;45954;49.768;8.636;2023-05-21T05:55:56;14.14;13.26;11.49;8.82;70.72;70.63;70.21;67.71;54.77;0.62
59652;SPS30;45954;49.768;8.636;2023-05-21T05:58:22;9.90;9.38;8.33;6.66;53.34;53.29;53.03;51.51;42.17;0.61
59652;SPS30;45954;49.768;8.636;2023-05-21T06:00:47;11.14;10.47;9.13;7.08;56.74;56.67;56.35;54.45;44.18;0.63
59652;SPS30;45954;49.768;8.636;2023-05-21T06:03:13;13.28;12.30;10.35;7.51;60.31;60.21;59.75;57.04;45.33;0.67
59652;SPS30;45954;49.768;8.636;2023-05-21T06:05:39;13.64;12.71;10.86;8.11;65.11;65.01;64.57;61.98;49.72;0.64
59652;SPS30;45954;49.768;8.636;2023-05-21T06:08:05;12.24;11.44;9.85;7.47;59.94;59.86;59.48;57.24;46.13;0.64
59652;SPS30;45954;49.768;8.636;2023-05-21T06:10:31;11.27;10.62;9.31;7.28;58.37;58.30;57.99;56.11;45.65;0.66
59652;SPS30;45954;49.768;8.636;2023-05-21T06:12:57;12.24;11.46;9.91;7.57;60.72;60.63;60.26;58.07;46.91;0.65
59652;SPS30;45954;49.768;8.636;2023-05-21T06:15:22;11.42;10.69;9.22;7.02;56.33;56.25;55.90;53.84;43.44;0.64
59652;SPS30;45954;49.768;8.636;2023-05-21T06:17:48;11.25;10.55;9.16;7.04;56.48;56.41;56.07;54.10;43.79;0.63
59652;SPS30;45954;49.768;8.636;2023-05-21T06:20:14;9.86;9.44;8.60;7.15;57.27;57.22;57.01;55.74;46.13;0.58
59652;SPS30;45954;49.768;8.636;2023-05-21T06:22:40;12.16;11.44;10.02;7.82;62.73;62.66;62.32;60.28;49.02;0.60
59652;SPS30;45954;49.768;8.636;2023-05-21T06:25:06;10.99;10.37;9.14;7.20;57.73;57.67;57.37;55.59;45.33;0.59
59652;SPS30;45954;49.768;8.636;2023-05-21T06:27:34;11.23;10.71;9.68;7.95;63.66;63.60;63.35;61.81;50.98;0.58
59652;SPS30;45954;49.768;8.636;2023-05-21T06:30:02;12.19;11.59;10.38;8.41;67.35;67.29;66.99;65.22;53.59;0.61
59652;SPS30;45954;49.768;8.636;2023-05-21T06:32:28;15.15;14.26;12.50;9.76;78.28;78.19;77.76;75.24;61.19;0.64
59652;SPS30;45954;49.768;8.636;2023-05-21T06:34:54;11.62;10.88;9.40;7.17;57.54;57.46;57.11;55.03;44.44;0.63
59652;SPS30;45954;49.768;8.636;2023-05-21T06:37:20;12.55;11.83;10.39;8.16;65.43;65.35;65.00;62.95;51.26;0.61
59652;SPS30;45954;49.768;8.636;2023-05-21T06:39:46;10.81;10.20;8.98;7.08;56.72;56.66;56.36;54.61;44.52;0.62
59652;SPS30;45954;49.768;8.636;2023-05-21T06:42:12;12.01;11.35;10.03;7.95;63.76;63.69;63.37;61.47;50.20;0.63
59652;SPS30;45954;49.768;8.636;2023-05-21T06:44:38;14.28;13.36;11.52;8.76;70.27;70.18;69.74;67.15;54.16;0.64
59652;SPS30;45954;49.768;8.636;2023-05-21T06:47:04;10.45;9.83;8.59;6.68;53.59;53.52;53.23;51.46;41.80;0.64
59652;SPS30;45954;49.768;8.636;2023-05-21T06:49:30;10.70;10.08;8.84;6.92;55.51;55.44;55.15;53.38;43.44;0.63
59652;SPS30;45954;49.768;8.636;2023-05-21T06:51:57;13.17;12.36;10.74;8.28;66.40;66.32;65.93;63.64;51.54;0.64
59652;SPS30;45954;49.768;8.636;2023-05-21T06:54:23;12.25;11.40;9.71;7.22;57.98;57.90;57.49;55.14;44.17;0.66
59652;SPS30;45954;49.768;8.636;2023-05-21T06:56:48;10.58;9.96;8.72;6.80;54.54;54.47;54.17;52.40;42.60;0.63
59652;SPS30;45954;49.768;8.636;2023-05-21T06:59:14;11.19;10.68;9.66;7.95;63.64;63.58;63.33;61.81;51.00;0.60
59652;SPS30;45954;49.768;8.636;2023-05-21T07:01:41;10.85;10.22;8.95;7.00;56.10;56.03;55.73;53.92;43.85;0.62
59652;SPS30;45954;49.768;8.636;2023-05-21T07:04:08;14.56;13.62;11.74;8.92;71.58;71.48;71.03;68.39;55.16;0.62
59652;SPS30;45954;49.768;8.636;2023-05-21T07:06:34;10.98;10.44;9.37;7.61;60.93;60.87;60.60;59.02;48.53;0.59
59652;SPS30;45954;49.768;8.636;2023-05-21T07:09:02;9.86;9.48;8.74;7.41;59.29;59.25;59.07;57.92;48.16;0.60
59652;SPS30;45954;49.768;8.636;2023-05-21T07:11:28;10.61;10.12;9.14;7.51;60.17;60.11;59.87;58.42;48.19;0.63
59652;SPS30;45954;49.768;8.636;2023-05-21T07:13:56;10.06;9.53;8.48;6.79;54.43;54.37;54.12;52.59;43.08;0.63
59652;SPS30;45954;49.768;8.636;2023-05-21T07:16:26;9.09;8.79;8.18;7.03;56.28;56.24;56.09;55.13;46.01;0.60
59652;SPS30;45954;49.768;8.636;2023-05-21T07:18:52;8.40;8.11;7.54;6.46;51.71;51.67;51.53;50.62;42.22;0.58
59652;SPS30;45954;49.768;8.636;2023-05-21T07:21:17;8.39;8.17;7.74;6.82;54.54;54.51;54.40;53.66;45.06;0.58
59652;SPS30;45954;49.768;8.636;2023-05-21T07:23:43;11.71;11.14;10.00;8.14;65.17;65.10;64.83;63.15;51.95;0.63
59652;SPS30;45954;49.768;8.636;2023-05-21T07:26:09;9.68;9.19;8.21;6.62;53.06;53.01;52.77;51.34;42.13;0.62
59652;SPS30;45954;49.768;8.636;2023-05-21T07:28:35;10.16;9.75;8.93;7.49;59.93;59.88;59.67;58.42;48.45;0.60
59652;SPS30;45954;49.768;8.636;2023-05-21T07:31:01;8.39;8.06;7.41;6.25;50.01;49.98;49.81;48.81;40.54;0.60
59652;SPS30;45954;49.768;8.636;2023-05-21T07:33:27;10.97;10.43;9.35;7.59;60.81;60.75;60.49;58.90;48.42;0.62
59652;SPS30;45954;49.768;8.636;2023-05-21T07:35:53;9.27;8.88;8.10;6.76;54.11;54.06;53.87;52.69;43.64;0.58
59652;SPS30;45954;49.768;8.636;2023-05-21T07:38:19;8.46;8.20;7.66;6.63;53.00;52.97;52.83;51.97;43.44;0.56
59652;SPS30;45954;49.768;8.636;2023-05-21T07:40:45;8.89;8.57;7.94;6.76;54.10;54.06;53.90;52.90;44.05;0.58
59652;SPS30;45954;49.768;8.636;2023-05-21T07:43:11;9.24;8.76;7.79;6.24;50.02;49.97;49.74;48.33;39.59;0.65
59652;SPS30;45954;49.768;8.636;2023-05-21T07:45:37;9.32;8.94;8.19;6.87;54.96;54.91;54.73;53.58;44.43;0.61
59652;SPS30;45954;49.768;8.636;2023-05-21T07:48:03;7.73;7.53;7.11;6.25;49.97;49.94;49.83;49.14;41.23;0.56
59652;SPS30;45954;49.768;8.636;2023-05-21T07:50:29;7.40;7.27;7.02;6.33;50.62;50.60;50.53;50.03;42.25;0.55
59652;SPS30;45954;49.768;8.636;2023-05-21T07:52:55;9.72;9.46;8.95;7.87;62.90;62.87;62.74;61.87;51.92;0.60
59652;SPS30;45954;49.768;8.636;2023-05-21T07:55:21;8.62;8.27;7.55;6.31;50.53;50.48;50.31;49.22;40.79;0.58
59652;SPS30;45954;49.768;8.636;2023-05-21T07:57:47;8.19;7.88;7.27;6.16;49.28;49.24;49.09;48.14;40.03;0.58
59652;SPS30;45954;49.768;8.636;2023-05-21T08:00:13;8.03;7.80;7.33;6.39;51.10;51.07;50.95;50.18;42.02;0.60
59652;SPS30;45954;49.768;8.636;2023-05-21T08:02:39;9.50;9.23;8.71;7.63;61.02;60.99;60.85;59.98;50.29;0.61
59652;SPS30;45954;49.768;8.636;2023-05-21T08:05:05;7.53;7.32;6.89;6.02;48.11;48.08;47.97;47.26;39.59;0.58
59652;SPS30;45954;49.768;8.636;2023-05-21T08:07:32;8.09;7.85;7.37;6.42;51.32;51.29;51.17;50.38;42.18;0.58
59652;SPS30;45954;49.768;8.636;2023-05-21T08:09:57;9.12;8.89;8.42;7.42;59.35;59.32;59.20;58.40;49.04;0.57
59652;SPS30;45954;49.768;8.636;2023-05-21T08:12:23;8.51;8.25;7.73;6.72;53.72;53.69;53.56;52.72;44.11;0.58
59652;SPS30;45954;49.768;8.636;2023-05-21T08:14:49;7.58;7.36;6.92;6.02;48.18;48.15;48.04;47.31;39.61;0.58
59652;SPS30;45954;49.768;8.636;2023-05-21T08:17:15;7.34;7.19;6.88;6.15;49.18;49.16;49.08;48.52;40.88;0.58
59652;SPS30;45954;49.768;8.636;2023-05-21T08:19:41;7.16;7.01;6.72;6.01;48.04;48.01;47.93;47.39;39.94;0.58
59652;SPS30;45954;49.768;8.636;2023-05-21T08:22:07;9.39;9.18;8.76;7.80;62.32;62.29;62.18;61.43;51.71;0.59
59652;SPS30;45954;49.768;8.636;2023-05-21T08:24:33;7.55;7.32;6.86;5.96;47.66;47.63;47.51;46.76;39.12;0.61
59652;SPS30;45954;49.768;8.636;2023-05-21T08:26:59;8.54;8.34;7.93;7.03;56.23;56.21;56.10;55.39;46.58;0.60
59652;SPS30;45954;49.768;8.636;2023-05-21T08:29:25;8.07;7.86;7.46;6.58;52.62;52.59;52.49;51.79;43.50;0.60
59652;SPS30;45954;49.768;8.636;2023-05-21T08:31:51;7.48;7.32;7.00;6.25;49.97;49.95;49.86;49.29;41.52;0.56
59652;SPS30;45954;49.768;8.636;2023-05-21T08:34:16;9.35;9.11;8.65;7.65;61.16;61.12;61.00;60.21;50.59;0.58
59652;SPS30;45954;49.768;8.636;2023-05-21T08:36:42;6.43;6.33;6.12;5.55;44.39;44.37;44.32;43.90;37.12;0.56
59652;SPS30;45954;49.768;8.636;2023-05-21T08:39:10;7.58;7.48;7.29;6.68;53.33;53.31;53.26;52.83;44.76;0.56
59652;SPS30;45954;49.768;8.636;2023-05-21T08:41:39;7.81;7.62;7.23;6.38;51.01;50.98;50.88;50.20;42.17;0.59
59652;SPS30;45954;49.768;8.636;2023-05-21T08:44:10;9.80;9.46;8.78;7.51;60.10;60.06;59.89;58.81;49.03;0.62
59652;SPS30;45954;49.768;8.636;2023-05-21T08:46:38;8.60;8.39;7.98;7.06;56.49;56.46;56.35;55.63;46.76;0.58
59652;SPS30;45954;49.768;8.636;2023-05-21T08:49:09;8.50;8.36;8.09;7.32;58.51;58.49;58.41;57.86;48.90;0.58
59652;SPS30;45954;49.768;8.636;2023-05-21T08:51:37;7.59;7.44;7.15;6.42;51.31;51.29;51.21;50.66;42.73;0.56
59652;SPS30;45954;49.768;8.636;2023-05-21T08:54:03;8.99;8.67;8.01;6.82;54.58;54.54;54.38;53.36;44.42;0.60
59652;SPS30;45954;49.768;8.636;2023-05-21T08:56:31;8.44;8.16;7.58;6.50;52.00;51.96;51.82;50.91;42.46;0.59
59652;SPS30;45954;49.768;8.636;2023-05-21T08:58:58;7.39;7.16;6.69;5.78;46.25;46.22;46.10;45.34;37.89;0.61
59652;SPS30;45954;49.768;8.636;2023-05-21T09:01:26;8.08;7.88;7.48;6.62;52.91;52.89;52.78;52.10;43.78;0.60